Pineville, MO

3:46 PM CDT on August 23, 2014 (GMT -0500)
Grove Municipal | Change Station
CLOSE
Current Station
Airport
Location: Grove,
Elevation: 833 ft
Nearby Weather Stations
Active Advisory: Heat Advisory Active Notice: Public Information Statement

Elev 833 ft 36.60 °N, 94.74 °W | Updated 11 minutes ago

Clear
Clear
99 °F
Feels Like 101 °F
N
12
Wind Variable Wind from South
Gusts 17 mph

Today
High -- | Low -- °F
--% Chance of Precip.
Yesterday
High -- | Low -- °F
Precip. -- in
6:41 AM 7:58 PM
Waning Crescent, 3% visible
Pressure 29.93 in
Visibility 10.0 miles
Clouds Clear
Heat Index 101 °F
Dew Point 64 °F
Humidity 32%
Rainfall 0.00 in
Snow Depth Not available.
UV 8 out of 12
Pollen 10.90 out of 12
Air Quality Not available.
Flu Activity Not available.
METAR KGMJ 232035Z AUTO 19010G15KT 10SM CLR 37/18 A2993 RMK AO2

More Conditions Fewer Conditions

Pressure 29.93 in
Visibility 10.0 miles
Clouds Clear
Heat Index 101 °F
Dew Point 64 °F
Humidity 32%
Rainfall 0.00 in
Snow Depth Not available.
UV 8 out of 12
Pollen 10.90 out of 12
Air Quality Not available.
Flu Activity Not available.
METAR KGMJ 232035Z AUTO 19010G15KT 10SM CLR 37/18 A2993 RMK AO2

More Conditions Fewer Conditions

10-Day Weather Forecast

Almanac

Astronomy

Aug. 23, 2014 Rise Set
Actual Time 6:41 AM CDT 7:58 PM CDT
Civil Twilight 6:14 AM CDT 8:24 PM CDT
Nautical Twilight 5:42 AM CDT 8:56 PM CDT
Astronomical Twilight 5:08 AM CDT 9:30 PM CDT
Moon 4:59 AM CDT 6:42 PM CDT
Length of Visible Light 14h 10m
Length of Day
13h 16m
Tomorrow will be 2m 9s shorter.
Waning Crescent, 3% of the Moon is Illuminated
Today
Waning Crescent
Aug 25
New
Sep 2
First Quarter
Sep 8
Full
Sep 15
Last Quarter

Today's Extremes

State Highs State Lows

Community

WunderPhotos

Upload Photos

1,746,622 photos uploaded!

WunderBlogs® & News

Nearby

Snow Depth

Station Depth Elevation
No new snow has been reported.

Earthquake Activity

City Distance Mag. Time & Date
No recent earthquake activity has been reported nearby.
Minimum magnitude displayed is 2.5.

Coastal Water Temperatures

Place Temperature
No Stations Reporting

Nearby Weather Stations